sensor_id;sensor_type;location;lat;lon;timestamp;temperature;humidity
10083;DHT22;5080;48.528;8.078;2022-11-24T00:01:58;10.10;99.90
10083;DHT22;5080;48.528;8.078;2022-11-24T00:04:26;10.10;99.90
10083;DHT22;5080;48.528;8.078;2022-11-24T00:06:53;10.10;99.90
10083;DHT22;5080;48.528;8.078;2022-11-24T00:09:20;10.20;99.90
10083;DHT22;5080;48.528;8.078;2022-11-24T00:11:47;10.20;99.90
10083;DHT22;5080;48.528;8.078;2022-11-24T00:14:14;10.20;99.90
10083;DHT22;5080;48.528;8.078;2022-11-24T00:16:41;10.20;99.90
10083;DHT22;5080;48.528;8.078;2022-11-24T00:19:08;10.20;99.90
10083;DHT22;5080;48.528;8.078;2022-11-24T00:21:37;10.20;99.90
10083;DHT22;5080;48.528;8.078;2022-11-24T00:24:04;10.20;99.90
10083;DHT22;5080;48.528;8.078;2022-11-24T00:26:33;10.20;99.90
10083;DHT22;5080;48.528;8.078;2022-11-24T00:29:03;10.20;99.90
10083;DHT22;5080;48.528;8.078;2022-11-24T00:31:32;10.20;99.90
10083;DHT22;5080;48.528;8.078;2022-11-24T00:34:02;10.20;99.90
10083;DHT22;5080;48.528;8.078;2022-11-24T00:36:31;10.20;99.90
10083;DHT22;5080;48.528;8.078;2022-11-24T00:39:01;10.20;99.90
10083;DHT22;5080;48.528;8.078;2022-11-24T00:41:29;10.10;99.90
10083;DHT22;5080;48.528;8.078;2022-11-24T00:43:57;10.00;99.90
10083;DHT22;5080;48.528;8.078;2022-11-24T00:46:24;10.00;99.90
10083;DHT22;5080;48.528;8.078;2022-11-24T00:48:52;10.00;99.90
10083;DHT22;5080;48.528;8.078;2022-11-24T00:51:21;10.00;99.90
10083;DHT22;5080;48.528;8.078;2022-11-24T00:53:49;9.90;99.90
10083;DHT22;5080;48.528;8.078;2022-11-24T00:56:19;10.00;99.90
10083;DHT22;5080;48.528;8.078;2022-11-24T00:58:45;10.00;99.90
10083;DHT22;5080;48.528;8.078;2022-11-24T01:01:14;10.00;99.90
10083;DHT22;5080;48.528;8.078;2022-11-24T01:03:42;10.00;99.90
10083;DHT22;5080;48.528;8.078;2022-11-24T01:06:11;10.10;99.90
10083;DHT22;5080;48.528;8.078;2022-11-24T01:08:39;10.10;99.90
10083;DHT22;5080;48.528;8.078;2022-11-24T01:11:10;10.10;99.90
10083;DHT22;5080;48.528;8.078;2022-11-24T01:13:41;10.10;99.90
10083;DHT22;5080;48.528;8.078;2022-11-24T01:16:14;10.10;99.90
10083;DHT22;5080;48.528;8.078;2022-11-24T01:18:41;10.10;99.90
10083;DHT22;5080;48.528;8.078;2022-11-24T01:21:11;10.10;99.90
10083;DHT22;5080;48.528;8.078;2022-11-24T01:23:39;10.10;99.90
10083;DHT22;5080;48.528;8.078;2022-11-24T01:26:06;10.10;99.90
10083;DHT22;5080;48.528;8.078;2022-11-24T01:28:34;10.00;99.90
10083;DHT22;5080;48.528;8.078;2022-11-24T01:31:05;10.10;99.90
10083;DHT22;5080;48.528;8.078;2022-11-24T01:33:33;10.00;99.90
10083;DHT22;5080;48.528;8.078;2022-11-24T01:36:01;10.00;99.90
10083;DHT22;5080;48.528;8.078;2022-11-24T01:38:28;10.00;99.90
10083;DHT22;5080;48.528;8.078;2022-11-24T01:41:04;10.10;99.90
10083;DHT22;5080;48.528;8.078;2022-11-24T01:43:31;10.10;99.90
10083;DHT22;5080;48.528;8.078;2022-11-24T01:46:04;10.10;99.90
10083;DHT22;5080;48.528;8.078;2022-11-24T01:48:39;10.10;99.90
10083;DHT22;5080;48.528;8.078;2022-11-24T01:51:12;10.10;99.90
10083;DHT22;5080;48.528;8.078;2022-11-24T01:53:41;10.20;99.90
10083;DHT22;5080;48.528;8.078;2022-11-24T01:56:10;10.20;99.90
10083;DHT22;5080;48.528;8.078;2022-11-24T01:58:39;10.20;99.90
10083;DHT22;5080;48.528;8.078;2022-11-24T02:01:09;10.30;99.90
10083;DHT22;5080;48.528;8.078;2022-11-24T02:03:39;10.30;99.90
10083;DHT22;5080;48.528;8.078;2022-11-24T02:06:09;10.30;99.90
10083;DHT22;5080;48.528;8.078;2022-11-24T02:08:41;10.30;99.90
10083;DHT22;5080;48.528;8.078;2022-11-24T02:11:09;10.20;99.90
10083;DHT22;5080;48.528;8.078;2022-11-24T02:13:37;10.20;99.90
10083;DHT22;5080;48.528;8.078;2022-11-24T02:16:06;10.00;99.90
10083;DHT22;5080;48.528;8.078;2022-11-24T02:18:36;9.90;99.90
10083;DHT22;5080;48.528;8.078;2022-11-24T02:21:05;9.80;99.90
10083;DHT22;5080;48.528;8.078;2022-11-24T02:23:38;9.70;99.90
10083;DHT22;5080;48.528;8.078;2022-11-24T02:26:17;9.70;99.90
10083;DHT22;5080;48.528;8.078;2022-11-24T02:28:48;9.60;99.90
10083;DHT22;5080;48.528;8.078;2022-11-24T02:31:15;9.50;99.90
10083;DHT22;5080;48.528;8.078;2022-11-24T02:33:43;9.50;99.90
10083;DHT22;5080;48.528;8.078;2022-11-24T02:36:10;9.40;99.90
10083;DHT22;5080;48.528;8.078;2022-11-24T02:38:37;9.30;99.90
10083;DHT22;5080;48.528;8.078;2022-11-24T02:41:07;9.30;99.90
10083;DHT22;5080;48.528;8.078;2022-11-24T02:43:39;9.20;99.90
10083;DHT22;5080;48.528;8.078;2022-11-24T02:46:08;9.20;99.90
10083;DHT22;5080;48.528;8.078;2022-11-24T02:48:36;9.10;99.90
10083;DHT22;5080;48.528;8.078;2022-11-24T02:51:04;9.10;99.90
10083;DHT22;5080;48.528;8.078;2022-11-24T02:53:31;9.10;99.90
10083;DHT22;5080;48.528;8.078;2022-11-24T02:55:58;9.00;99.90
10083;DHT22;5080;48.528;8.078;2022-11-24T02:58:25;9.00;99.90
10083;DHT22;5080;48.528;8.078;2022-11-24T03:00:52;8.90;99.90
10083;DHT22;5080;48.528;8.078;2022-11-24T03:03:23;8.90;99.90
10083;DHT22;5080;48.528;8.078;2022-11-24T03:05:52;8.90;99.90
10083;DHT22;5080;48.528;8.078;2022-11-24T03:08:19;8.80;99.90
10083;DHT22;5080;48.528;8.078;2022-11-24T03:10:46;8.80;99.90
10083;DHT22;5080;48.528;8.078;2022-11-24T03:13:13;8.70;99.90
10083;DHT22;5080;48.528;8.078;2022-11-24T03:15:40;8.70;99.90
10083;DHT22;5080;48.528;8.078;2022-11-24T03:18:07;8.60;99.90
10083;DHT22;5080;48.528;8.078;2022-11-24T03:20:36;8.50;99.90
10083;DHT22;5080;48.528;8.078;2022-11-24T03:23:03;8.50;99.90
10083;DHT22;5080;48.528;8.078;2022-11-24T03:25:30;8.60;99.90
10083;DHT22;5080;48.528;8.078;2022-11-24T03:27:57;8.60;99.90
10083;DHT22;5080;48.528;8.078;2022-11-24T03:30:24;8.60;99.90
10083;DHT22;5080;48.528;8.078;2022-11-24T03:32:53;8.70;99.90
10083;DHT22;5080;48.528;8.078;2022-11-24T03:35:21;8.60;99.90
10083;DHT22;5080;48.528;8.078;2022-11-24T03:37:50;8.50;99.90
10083;DHT22;5080;48.528;8.078;2022-11-24T03:40:17;8.60;99.90
10083;DHT22;5080;48.528;8.078;2022-11-24T03:42:44;8.60;99.90
10083;DHT22;5080;48.528;8.078;2022-11-24T03:45:11;8.60;99.90
10083;DHT22;5080;48.528;8.078;2022-11-24T03:47:39;8.60;99.90
10083;DHT22;5080;48.528;8.078;2022-11-24T03:50:06;8.60;99.90
10083;DHT22;5080;48.528;8.078;2022-11-24T03:52:34;8.70;99.90
10083;DHT22;5080;48.528;8.078;2022-11-24T03:55:02;8.70;99.90
10083;DHT22;5080;48.528;8.078;2022-11-24T03:57:29;8.70;99.90
10083;DHT22;5080;48.528;8.078;2022-11-24T03:59:56;8.80;99.90
10083;DHT22;5080;48.528;8.078;2022-11-24T04:02:23;8.80;99.90
10083;DHT22;5080;48.528;8.078;2022-11-24T04:04:50;8.80;99.90
10083;DHT22;5080;48.528;8.078;2022-11-24T04:07:17;8.90;99.90
10083;DHT22;5080;48.528;8.078;2022-11-24T04:09:44;8.90;99.90
10083;DHT22;5080;48.528;8.078;2022-11-24T04:12:13;8.90;99.90
10083;DHT22;5080;48.528;8.078;2022-11-24T04:14:57;8.90;99.90
10083;DHT22;5080;48.528;8.078;2022-11-24T04:17:24;8.90;99.90
10083;DHT22;5080;48.528;8.078;2022-11-24T04:19:51;8.90;99.90
10083;DHT22;5080;48.528;8.078;2022-11-24T04:22:18;9.00;99.90
10083;DHT22;5080;48.528;8.078;2022-11-24T04:24:45;9.00;99.90
10083;DHT22;5080;48.528;8.078;2022-11-24T04:27:13;9.10;99.90
10083;DHT22;5080;48.528;8.078;2022-11-24T04:29:40;9.10;99.90
10083;DHT22;5080;48.528;8.078;2022-11-24T04:32:07;9.10;99.90
10083;DHT22;5080;48.528;8.078;2022-11-24T04:34:34;9.10;99.90
10083;DHT22;5080;48.528;8.078;2022-11-24T04:37:02;9.10;99.90
10083;DHT22;5080;48.528;8.078;2022-11-24T04:39:29;9.10;99.90
10083;DHT22;5080;48.528;8.078;2022-11-24T04:41:55;9.10;99.90
10083;DHT22;5080;48.528;8.078;2022-11-24T04:44:24;9.10;99.90
10083;DHT22;5080;48.528;8.078;2022-11-24T04:46:51;9.10;99.90
10083;DHT22;5080;48.528;8.078;2022-11-24T04:49:18;9.20;99.90
10083;DHT22;5080;48.528;8.078;2022-11-24T04:51:45;9.20;99.90
10083;DHT22;5080;48.528;8.078;2022-11-24T04:54:13;9.20;99.90
10083;DHT22;5080;48.528;8.078;2022-11-24T04:56:41;9.20;99.90
10083;DHT22;5080;48.528;8.078;2022-11-24T04:59:12;9.20;99.90
10083;DHT22;5080;48.528;8.078;2022-11-24T05:01:42;9.20;99.90
10083;DHT22;5080;48.528;8.078;2022-11-24T05:04:10;9.30;99.90
10083;DHT22;5080;48.528;8.078;2022-11-24T05:06:37;9.30;99.90
10083;DHT22;5080;48.528;8.078;2022-11-24T05:09:05;9.20;99.90
10083;DHT22;5080;48.528;8.078;2022-11-24T05:11:33;9.30;99.90
10083;DHT22;5080;48.528;8.078;2022-11-24T05:14:02;9.30;99.90
10083;DHT22;5080;48.528;8.078;2022-11-24T05:16:29;9.30;99.90
10083;DHT22;5080;48.528;8.078;2022-11-24T05:18:57;9.30;99.90
10083;DHT22;5080;48.528;8.078;2022-11-24T05:21:24;9.30;99.90
10083;DHT22;5080;48.528;8.078;2022-11-24T05:23:50;9.30;99.90
10083;DHT22;5080;48.528;8.078;2022-11-24T05:26:17;9.30;99.90
10083;DHT22;5080;48.528;8.078;2022-11-24T05:28:44;9.30;99.90
10083;DHT22;5080;48.528;8.078;2022-11-24T05:31:11;9.30;99.90
10083;DHT22;5080;48.528;8.078;2022-11-24T05:33:38;9.30;99.90
10083;DHT22;5080;48.528;8.078;2022-11-24T05:36:07;9.30;99.90
10083;DHT22;5080;48.528;8.078;2022-11-24T05:38:55;9.30;99.90
10083;DHT22;5080;48.528;8.078;2022-11-24T05:41:22;9.30;99.90
10083;DHT22;5080;48.528;8.078;2022-11-24T05:43:49;9.40;99.90
10083;DHT22;5080;48.528;8.078;2022-11-24T05:46:17;9.50;99.90
10083;DHT22;5080;48.528;8.078;2022-11-24T05:48:44;9.40;99.90
10083;DHT22;5080;48.528;8.078;2022-11-24T05:51:12;9.50;99.90
10083;DHT22;5080;48.528;8.078;2022-11-24T05:53:39;9.50;99.90
10083;DHT22;5080;48.528;8.078;2022-11-24T05:56:06;9.50;99.90
10083;DHT22;5080;48.528;8.078;2022-11-24T05:58:39;9.50;99.90
10083;DHT22;5080;48.528;8.078;2022-11-24T06:01:07;9.50;99.90
10083;DHT22;5080;48.528;8.078;2022-11-24T06:03:34;9.50;99.90
10083;DHT22;5080;48.528;8.078;2022-11-24T06:06:01;9.60;99.90
10083;DHT22;5080;48.528;8.078;2022-11-24T06:08:30;9.60;99.90
10083;DHT22;5080;48.528;8.078;2022-11-24T06:10:58;9.70;99.90
10083;DHT22;5080;48.528;8.078;2022-11-24T06:13:41;9.70;99.90
10083;DHT22;5080;48.528;8.078;2022-11-24T06:16:09;9.70;99.90
10083;DHT22;5080;48.528;8.078;2022-11-24T06:18:36;9.80;99.90
10083;DHT22;5080;48.528;8.078;2022-11-24T06:21:04;9.90;99.90
10083;DHT22;5080;48.528;8.078;2022-11-24T06:23:33;9.90;99.90
10083;DHT22;5080;48.528;8.078;2022-11-24T06:26:01;9.90;99.90
10083;DHT22;5080;48.528;8.078;2022-11-24T06:28:27;9.90;99.90
10083;DHT22;5080;48.528;8.078;2022-11-24T06:30:54;9.90;99.90
10083;DHT22;5080;48.528;8.078;2022-11-24T06:33:25;9.90;99.90
10083;DHT22;5080;48.528;8.078;2022-11-24T06:35:52;9.90;99.90
10083;DHT22;5080;48.528;8.078;2022-11-24T06:38:25;9.80;99.90
10083;DHT22;5080;48.528;8.078;2022-11-24T06:40:59;9.80;99.90
10083;DHT22;5080;48.528;8.078;2022-11-24T06:43:26;9.80;99.90
10083;DHT22;5080;48.528;8.078;2022-11-24T06:45:53;9.90;99.90
10083;DHT22;5080;48.528;8.078;2022-11-24T06:48:20;10.00;99.90
10083;DHT22;5080;48.528;8.078;2022-11-24T06:50:47;10.00;99.90
10083;DHT22;5080;48.528;8.078;2022-11-24T06:53:14;9.90;99.90
10083;DHT22;5080;48.528;8.078;2022-11-24T06:55:41;9.90;99.90
10083;DHT22;5080;48.528;8.078;2022-11-24T06:58:10;9.80;99.90
10083;DHT22;5080;48.528;8.078;2022-11-24T07:00:38;9.70;99.90
10083;DHT22;5080;48.528;8.078;2022-11-24T07:03:05;9.70;99.90
10083;DHT22;5080;48.528;8.078;2022-11-24T07:05:31;9.60;99.90
10083;DHT22;5080;48.528;8.078;2022-11-24T07:07:59;9.50;99.90
10083;DHT22;5080;48.528;8.078;2022-11-24T07:10:26;9.50;99.90
10083;DHT22;5080;48.528;8.078;2022-11-24T07:12:53;9.50;99.90
10083;DHT22;5080;48.528;8.078;2022-11-24T07:15:22;9.50;99.90
10083;DHT22;5080;48.528;8.078;2022-11-24T07:17:48;9.60;99.90
10083;DHT22;5080;48.528;8.078;2022-11-24T07:20:16;9.70;99.90
10083;DHT22;5080;48.528;8.078;2022-11-24T07:22:42;9.80;99.90
10083;DHT22;5080;48.528;8.078;2022-11-24T07:25:09;9.90;99.90
10083;DHT22;5080;48.528;8.078;2022-11-24T07:27:38;9.90;99.90
10083;DHT22;5080;48.528;8.078;2022-11-24T07:30:06;9.90;99.90
10083;DHT22;5080;48.528;8.078;2022-11-24T07:32:34;9.90;99.90
10083;DHT22;5080;48.528;8.078;2022-11-24T07:35:01;9.90;99.90
10083;DHT22;5080;48.528;8.078;2022-11-24T07:37:28;9.90;99.90
10083;DHT22;5080;48.528;8.078;2022-11-24T07:39:55;10.00;99.90
10083;DHT22;5080;48.528;8.078;2022-11-24T07:42:23;10.10;99.90
10083;DHT22;5080;48.528;8.078;2022-11-24T07:44:50;10.10;99.90
10083;DHT22;5080;48.528;8.078;2022-11-24T07:47:17;10.20;99.90
10083;DHT22;5080;48.528;8.078;2022-11-24T07:49:45;10.20;99.90
10083;DHT22;5080;48.528;8.078;2022-11-24T07:52:12;10.20;99.90
10083;DHT22;5080;48.528;8.078;2022-11-24T07:54:38;10.20;99.90
10083;DHT22;5080;48.528;8.078;2022-11-24T07:57:05;10.20;99.90
10083;DHT22;5080;48.528;8.078;2022-11-24T07:59:32;10.10;99.90
10083;DHT22;5080;48.528;8.078;2022-11-24T08:01:59;10.10;99.90
10083;DHT22;5080;48.528;8.078;2022-11-24T08:04:26;10.00;99.90
10083;DHT22;5080;48.528;8.078;2022-11-24T08:06:54;10.00;99.90
10083;DHT22;5080;48.528;8.078;2022-11-24T08:09:21;10.00;99.90
10083;DHT22;5080;48.528;8.078;2022-11-24T08:11:47;9.90;99.90
10083;DHT22;5080;48.528;8.078;2022-11-24T08:14:14;9.90;99.90
10083;DHT22;5080;48.528;8.078;2022-11-24T08:16:41;10.00;99.90
10083;DHT22;5080;48.528;8.078;2022-11-24T08:19:08;10.00;99.90
10083;DHT22;5080;48.528;8.078;2022-11-24T08:21:36;9.90;99.90
10083;DHT22;5080;48.528;8.078;2022-11-24T08:24:05;10.00;99.90
10083;DHT22;5080;48.528;8.078;2022-11-24T08:26:32;10.00;99.90
10083;DHT22;5080;48.528;8.078;2022-11-24T08:28:59;10.00;99.90
10083;DHT22;5080;48.528;8.078;2022-11-24T08:31:27;10.00;99.90
10083;DHT22;5080;48.528;8.078;2022-11-24T08:33:58;10.10;99.90
10083;DHT22;5080;48.528;8.078;2022-11-24T08:36:25;10.10;99.90
10083;DHT22;5080;48.528;8.078;2022-11-24T08:38:54;10.10;99.90
10083;DHT22;5080;48.528;8.078;2022-11-24T08:41:23;10.10;99.90
10083;DHT22;5080;48.528;8.078;2022-11-24T08:43:50;10.00;99.90
10083;DHT22;5080;48.528;8.078;2022-11-24T08:46:18;10.00;99.90
10083;DHT22;5080;48.528;8.078;2022-11-24T08:48:47;10.00;99.90
10083;DHT22;5080;48.528;8.078;2022-11-24T08:51:16;10.10;99.90
10083;DHT22;5080;48.528;8.078;2022-11-24T08:53:44;10.10;99.90
10083;DHT22;5080;48.528;8.078;2022-11-24T08:56:12;10.10;99.90
10083;DHT22;5080;48.528;8.078;2022-11-24T08:58:40;10.10;99.90
10083;DHT22;5080;48.528;8.078;2022-11-24T09:01:08;10.20;99.90
10083;DHT22;5080;48.528;8.078;2022-11-24T09:03:36;10.30;99.90
10083;DHT22;5080;48.528;8.078;2022-11-24T09:06:04;10.30;99.90
10083;DHT22;5080;48.528;8.078;2022-11-24T09:08:31;10.30;99.90
10083;DHT22;5080;48.528;8.078;2022-11-24T09:10:59;10.50;99.90
10083;DHT22;5080;48.528;8.078;2022-11-24T09:13:26;10.30;99.90
10083;DHT22;5080;48.528;8.078;2022-11-24T09:15:55;10.40;99.90
10083;DHT22;5080;48.528;8.078;2022-11-24T09:18:22;10.50;99.90
10083;DHT22;5080;48.528;8.078;2022-11-24T09:20:49;10.60;99.90
10083;DHT22;5080;48.528;8.078;2022-11-24T09:23:16;10.50;99.90
10083;DHT22;5080;48.528;8.078;2022-11-24T09:25:42;10.50;99.90
10083;DHT22;5080;48.528;8.078;2022-11-24T09:28:09;10.60;99.90
10083;DHT22;5080;48.528;8.078;2022-11-24T09:30:36;10.70;99.90
10083;DHT22;5080;48.528;8.078;2022-11-24T09:33:04;10.80;99.90
10083;DHT22;5080;48.528;8.078;2022-11-24T09:35:31;11.00;99.90
10083;DHT22;5080;48.528;8.078;2022-11-24T09:37:58;11.10;99.90
10083;DHT22;5080;48.528;8.078;2022-11-24T09:40:26;11.10;99.90
10083;DHT22;5080;48.528;8.078;2022-11-24T09:42:58;11.20;99.90
10083;DHT22;5080;48.528;8.078;2022-11-24T09:45:41;11.20;99.90
10083;DHT22;5080;48.528;8.078;2022-11-24T09:48:14;11.40;99.90
10083;DHT22;5080;48.528;8.078;2022-11-24T09:50:45;11.40;99.90
10083;DHT22;5080;48.528;8.078;2022-11-24T09:53:17;11.50;99.90
10083;DHT22;5080;48.528;8.078;2022-11-24T09:55:47;11.60;99.90
10083;DHT22;5080;48.528;8.078;2022-11-24T09:58:34;11.60;99.90
10083;DHT22;5080;48.528;8.078;2022-11-24T10:01:06;11.60;99.90
10083;DHT22;5080;48.528;8.078;2022-11-24T10:03:38;11.60;99.90
10083;DHT22;5080;48.528;8.078;2022-11-24T10:06:18;11.70;99.90
10083;DHT22;5080;48.528;8.078;2022-11-24T10:09:12;11.60;99.90
10083;DHT22;5080;48.528;8.078;2022-11-24T10:11:44;11.50;99.90
10083;DHT22;5080;48.528;8.078;2022-11-24T10:14:40;11.50;99.90
10083;DHT22;5080;48.528;8.078;2022-11-24T10:17:20;11.60;99.90
10083;DHT22;5080;48.528;8.078;2022-11-24T10:19:56;11.60;99.90
10083;DHT22;5080;48.528;8.078;2022-11-24T10:22:34;11.70;99.90
10083;DHT22;5080;48.528;8.078;2022-11-24T10:25:12;11.70;99.90
10083;DHT22;5080;48.528;8.078;2022-11-24T10:27:43;11.80;99.90
10083;DHT22;5080;48.528;8.078;2022-11-24T10:30:16;11.90;99.90
10083;DHT22;5080;48.528;8.078;2022-11-24T10:32:46;12.00;99.90
10083;DHT22;5080;48.528;8.078;2022-11-24T10:35:17;12.00;99.90
10083;DHT22;5080;48.528;8.078;2022-11-24T10:37:57;12.00;99.90
10083;DHT22;5080;48.528;8.078;2022-11-24T10:40:33;12.00;99.90
10083;DHT22;5080;48.528;8.078;2022-11-24T10:43:02;12.10;99.90
10083;DHT22;5080;48.528;8.078;2022-11-24T10:45:35;12.00;99.90
10083;DHT22;5080;48.528;8.078;2022-11-24T10:48:07;11.90;99.90
10083;DHT22;5080;48.528;8.078;2022-11-24T10:50:37;12.00;99.90
10083;DHT22;5080;48.528;8.078;2022-11-24T10:53:13;12.10;99.90
10083;DHT22;5080;48.528;8.078;2022-11-24T10:56:02;12.20;99.90
10083;DHT22;5080;48.528;8.078;2022-11-24T10:58:30;12.30;99.90
10083;DHT22;5080;48.528;8.078;2022-11-24T11:00:59;12.40;99.90
10083;DHT22;5080;48.528;8.078;2022-11-24T11:03:30;12.50;99.90
10083;DHT22;5080;48.528;8.078;2022-11-24T11:06:02;12.60;99.90
10083;DHT22;5080;48.528;8.078;2022-11-24T11:08:35;12.70;99.90
10083;DHT22;5080;48.528;8.078;2022-11-24T11:11:18;12.70;99.90
10083;DHT22;5080;48.528;8.078;2022-11-24T11:13:51;12.70;99.90
10083;DHT22;5080;48.528;8.078;2022-11-24T11:16:31;12.60;99.90
10083;DHT22;5080;48.528;8.078;2022-11-24T11:18:59;12.60;99.90
10083;DHT22;5080;48.528;8.078;2022-11-24T11:21:31;12.60;99.90
10083;DHT22;5080;48.528;8.078;2022-11-24T11:23:59;12.60;99.90
10083;DHT22;5080;48.528;8.078;2022-11-24T11:26:32;12.60;99.90
10083;DHT22;5080;48.528;8.078;2022-11-24T11:29:02;12.70;99.90
10083;DHT22;5080;48.528;8.078;2022-11-24T11:31:30;12.90;99.90
10083;DHT22;5080;48.528;8.078;2022-11-24T11:34:00;13.00;99.90
10083;DHT22;5080;48.528;8.078;2022-11-24T11:36:30;13.00;99.90
10083;DHT22;5080;48.528;8.078;2022-11-24T11:38:58;13.00;99.90
10083;DHT22;5080;48.528;8.078;2022-11-24T11:41:29;12.80;99.90
10083;DHT22;5080;48.528;8.078;2022-11-24T11:44:06;12.80;99.90
10083;DHT22;5080;48.528;8.078;2022-11-24T11:46:36;12.90;99.90
10083;DHT22;5080;48.528;8.078;2022-11-24T11:49:03;12.90;99.90
10083;DHT22;5080;48.528;8.078;2022-11-24T11:51:43;13.00;99.90
10083;DHT22;5080;48.528;8.078;2022-11-24T11:54:19;13.10;99.90
10083;DHT22;5080;48.528;8.078;2022-11-24T11:59:37;13.20;99.90
10083;DHT22;5080;48.528;8.078;2022-11-24T12:05:27;13.20;99.90
10083;DHT22;5080;48.528;8.078;2022-11-24T12:08:10;13.20;99.90
10083;DHT22;5080;48.528;8.078;2022-11-24T12:10:43;13.20;99.90
10083;DHT22;5080;48.528;8.078;2022-11-24T12:13:43;13.10;99.90
10083;DHT22;5080;48.528;8.078;2022-11-24T12:16:26;13.20;99.90
10083;DHT22;5080;48.528;8.078;2022-11-24T12:19:13;13.10;99.90
10083;DHT22;5080;48.528;8.078;2022-11-24T12:21:47;13.00;99.90
10083;DHT22;5080;48.528;8.078;2022-11-24T12:24:26;13.00;99.90
10083;DHT22;5080;48.528;8.078;2022-11-24T12:27:04;13.10;99.90
10083;DHT22;5080;48.528;8.078;2022-11-24T12:29:51;13.00;99.90
10083;DHT22;5080;48.528;8.078;2022-11-24T12:32:36;12.90;99.90
10083;DHT22;5080;48.528;8.078;2022-11-24T12:35:16;12.80;99.90
10083;DHT22;5080;48.528;8.078;2022-11-24T12:37:54;12.80;99.90
10083;DHT22;5080;48.528;8.078;2022-11-24T12:40:33;12.80;99.90
10083;DHT22;5080;48.528;8.078;2022-11-24T12:43:09;12.80;99.90
10083;DHT22;5080;48.528;8.078;2022-11-24T12:45:43;12.80;99.90
10083;DHT22;5080;48.528;8.078;2022-11-24T12:48:32;12.80;99.90
10083;DHT22;5080;48.528;8.078;2022-11-24T12:51:06;12.80;99.90
10083;DHT22;5080;48.528;8.078;2022-11-24T12:53:37;12.70;99.90
10083;DHT22;5080;48.528;8.078;2022-11-24T12:56:09;12.70;99.90
10083;DHT22;5080;48.528;8.078;2022-11-24T12:58:41;12.80;99.90
10083;DHT22;5080;48.528;8.078;2022-11-24T13:01:23;12.80;99.90
10083;DHT22;5080;48.528;8.078;2022-11-24T13:04:02;12.80;99.90
10083;DHT22;5080;48.528;8.078;2022-11-24T13:06:38;12.80;99.90
10083;DHT22;5080;48.528;8.078;2022-11-24T13:09:07;12.90;99.90
10083;DHT22;5080;48.528;8.078;2022-11-24T13:11:41;12.90;99.90
10083;DHT22;5080;48.528;8.078;2022-11-24T13:14:17;13.00;99.90
10083;DHT22;5080;48.528;8.078;2022-11-24T13:16:52;13.00;99.90
10083;DHT22;5080;48.528;8.078;2022-11-24T13:19:20;13.00;99.90
10083;DHT22;5080;48.528;8.078;2022-11-24T13:21:59;13.10;99.90
10083;DHT22;5080;48.528;8.078;2022-11-24T13:24:28;13.00;99.90
10083;DHT22;5080;48.528;8.078;2022-11-24T13:27:30;13.00;99.90
10083;DHT22;5080;48.528;8.078;2022-11-24T13:33:33;13.00;99.90
10083;DHT22;5080;48.528;8.078;2022-11-24T13:36:29;13.00;99.90
10083;DHT22;5080;48.528;8.078;2022-11-24T13:38:56;13.10;99.90
10083;DHT22;5080;48.528;8.078;2022-11-24T13:44:46;13.10;99.90
10083;DHT22;5080;48.528;8.078;2022-11-24T13:47:46;13.10;99.90
10083;DHT22;5080;48.528;8.078;2022-11-24T13:53:15;13.10;99.90
10083;DHT22;5080;48.528;8.078;2022-11-24T13:55:54;13.20;99.90
10083;DHT22;5080;48.528;8.078;2022-11-24T13:58:29;13.30;99.90
10083;DHT22;5080;48.528;8.078;2022-11-24T14:01:08;13.30;99.90
10083;DHT22;5080;48.528;8.078;2022-11-24T14:03:42;13.40;99.90
10083;DHT22;5080;48.528;8.078;2022-11-24T14:06:15;13.40;99.90
10083;DHT22;5080;48.528;8.078;2022-11-24T14:08:44;13.40;99.90
10083;DHT22;5080;48.528;8.078;2022-11-24T14:11:15;13.50;99.90
10083;DHT22;5080;48.528;8.078;2022-11-24T14:13:42;13.40;99.90
10083;DHT22;5080;48.528;8.078;2022-11-24T14:16:15;13.40;99.90
10083;DHT22;5080;48.528;8.078;2022-11-24T14:18:44;13.40;99.90
10083;DHT22;5080;48.528;8.078;2022-11-24T14:21:24;13.40;99.90
10083;DHT22;5080;48.528;8.078;2022-11-24T14:23:54;13.30;99.90
10083;DHT22;5080;48.528;8.078;2022-11-24T14:26:24;13.10;99.90
10083;DHT22;5080;48.528;8.078;2022-11-24T14:28:53;13.10;99.90
10083;DHT22;5080;48.528;8.078;2022-11-24T14:31:28;13.00;99.90
10083;DHT22;5080;48.528;8.078;2022-11-24T14:34:11;12.90;99.90
10083;DHT22;5080;48.528;8.078;2022-11-24T14:36:39;12.80;99.90
10083;DHT22;5080;48.528;8.078;2022-11-24T14:39:09;12.80;99.90
10083;DHT22;5080;48.528;8.078;2022-11-24T14:41:36;12.70;99.90
10083;DHT22;5080;48.528;8.078;2022-11-24T14:44:05;12.60;99.90
10083;DHT22;5080;48.528;8.078;2022-11-24T14:46:35;12.60;99.90
10083;DHT22;5080;48.528;8.078;2022-11-24T14:49:02;12.50;99.90
10083;DHT22;5080;48.528;8.078;2022-11-24T14:51:32;12.40;99.90
10083;DHT22;5080;48.528;8.078;2022-11-24T14:54:02;12.40;99.90
10083;DHT22;5080;48.528;8.078;2022-11-24T14:56:32;12.20;99.90
10083;DHT22;5080;48.528;8.078;2022-11-24T14:59:00;11.90;99.90
10083;DHT22;5080;48.528;8.078;2022-11-24T15:01:29;11.80;99.90
10083;DHT22;5080;48.528;8.078;2022-11-24T15:04:16;11.70;99.90
10083;DHT22;5080;48.528;8.078;2022-11-24T15:06:44;11.70;99.90
10083;DHT22;5080;48.528;8.078;2022-11-24T15:09:21;11.60;99.90
10083;DHT22;5080;48.528;8.078;2022-11-24T15:11:49;11.50;99.90
10083;DHT22;5080;48.528;8.078;2022-11-24T15:14:46;11.50;99.90
10083;DHT22;5080;48.528;8.078;2022-11-24T15:17:21;11.40;99.90
10083;DHT22;5080;48.528;8.078;2022-11-24T15:19:51;11.40;99.90
10083;DHT22;5080;48.528;8.078;2022-11-24T15:22:33;11.20;99.90
10083;DHT22;5080;48.528;8.078;2022-11-24T15:25:01;11.10;99.90
10083;DHT22;5080;48.528;8.078;2022-11-24T15:27:27;11.00;99.90
10083;DHT22;5080;48.528;8.078;2022-11-24T15:29:54;10.80;99.90
10083;DHT22;5080;48.528;8.078;2022-11-24T15:32:21;10.70;99.90
10083;DHT22;5080;48.528;8.078;2022-11-24T15:34:49;10.60;99.90
10083;DHT22;5080;48.528;8.078;2022-11-24T15:37:16;10.60;99.90
10083;DHT22;5080;48.528;8.078;2022-11-24T15:39:43;10.60;99.90
10083;DHT22;5080;48.528;8.078;2022-11-24T15:42:11;10.50;99.90
10083;DHT22;5080;48.528;8.078;2022-11-24T15:44:38;10.40;99.90
10083;DHT22;5080;48.528;8.078;2022-11-24T15:47:05;10.30;99.90
10083;DHT22;5080;48.528;8.078;2022-11-24T15:49:32;10.20;99.90
10083;DHT22;5080;48.528;8.078;2022-11-24T15:52:00;10.20;99.90
10083;DHT22;5080;48.528;8.078;2022-11-24T15:54:27;10.10;99.90
10083;DHT22;5080;48.528;8.078;2022-11-24T15:56:54;10.00;99.90
10083;DHT22;5080;48.528;8.078;2022-11-24T15:59:21;9.90;99.90
10083;DHT22;5080;48.528;8.078;2022-11-24T16:01:47;9.80;99.90
10083;DHT22;5080;48.528;8.078;2022-11-24T16:04:15;9.70;99.90
10083;DHT22;5080;48.528;8.078;2022-11-24T16:06:43;9.70;99.90
10083;DHT22;5080;48.528;8.078;2022-11-24T16:09:14;9.70;99.90
10083;DHT22;5080;48.528;8.078;2022-11-24T16:11:41;9.70;99.90
10083;DHT22;5080;48.528;8.078;2022-11-24T16:14:08;9.70;99.90
10083;DHT22;5080;48.528;8.078;2022-11-24T16:16:35;9.60;99.90
10083;DHT22;5080;48.528;8.078;2022-11-24T16:19:02;9.60;99.90
10083;DHT22;5080;48.528;8.078;2022-11-24T16:21:30;9.50;99.90
10083;DHT22;5080;48.528;8.078;2022-11-24T16:23:56;9.50;99.90
10083;DHT22;5080;48.528;8.078;2022-11-24T16:26:25;9.40;99.90
10083;DHT22;5080;48.528;8.078;2022-11-24T16:28:52;9.40;99.90